Time;durP1;ratioP1;P1;durP2;ratioP2;P2;SDS_P1;SDS_P2;PMS_P1;PMS_P2;Temp;Humidity;BMP_temperature;BMP_pressure;BME280_temperature;BME280_humidity;BME280_pressure;Samples;Min_cycle;Max_cycle;Signal;HPM_P1;HPM_P2
2022/01/30 00:00:57;;;;;;;12.40;3.75;;;;;;;;;;5054292;28;20208;-70
2022/01/30 00:03:24;;;;;;;18.13;4.50;;;;;;;;;;5054131;28;20206;-69
2022/01/30 00:06:01;;;;;;;16.90;5.78;;;;;;;;;;5055411;28;20234;-69
2022/01/30 00:08:29;;;;;;;20.92;4.80;;;;;;;;;;5053832;28;20301;-69
2022/01/30 00:11:02;;;;;;;15.43;3.95;;;;;;;;;;5054084;28;20196;-70
2022/01/30 00:13:30;;;;;;;21.38;4.15;;;;;;;;;;5054294;28;20623;-70
2022/01/30 00:15:58;;;;;;;24.13;6.05;;;;;;;;;;5054052;28;20197;-70
2022/01/30 00:18:46;;;;;;;24.65;4.97;;;;;;;;;;5054498;28;20661;-69
2022/01/30 00:21:22;;;;;;;19.65;4.75;;;;;;;;;;5054764;28;20205;-70
2022/01/30 00:23:56;;;;;;;12.73;4.65;;;;;;;;;;5053661;28;20218;-70
2022/01/30 00:26:28;;;;;;;13.27;3.72;;;;;;;;;;5053722;28;20280;-69
2022/01/30 00:28:57;;;;;;;14.82;4.65;;;;;;;;;;5054597;28;20355;-69
2022/01/30 00:31:25;;;;;;;17.65;3.53;;;;;;;;;;5054036;28;20725;-70
2022/01/30 00:33:53;;;;;;;13.35;4.38;;;;;;;;;;5053745;28;20555;-69
2022/01/30 00:36:20;;;;;;;10.55;4.65;;;;;;;;;;5053374;28;20192;-68
2022/01/30 00:38:47;;;;;;;11.60;5.13;;;;;;;;;;5053286;28;20204;-69
2022/01/30 00:41:14;;;;;;;17.30;4.07;;;;;;;;;;5053253;28;20228;-69
2022/01/30 00:43:42;;;;;;;14.60;3.35;;;;;;;;;;5053648;28;20204;-69
2022/01/30 00:46:10;;;;;;;16.85;4.93;;;;;;;;;;5053011;28;20233;-69
2022/01/30 00:48:38;;;;;;;18.45;3.80;;;;;;;;;;5053005;28;20308;-69
2022/01/30 00:51:05;;;;;;;23.35;7.20;;;;;;;;;;5053109;28;20197;-70
2022/01/30 00:53:32;;;;;;;21.38;5.57;;;;;;;;;;5053163;28;20233;-69
2022/01/30 00:55:59;;;;;;;22.90;4.70;;;;;;;;;;5053294;28;20236;-70
2022/01/30 00:58:26;;;;;;;16.02;4.38;;;;;;;;;;5053400;28;20252;-70
2022/01/30 01:00:54;;;;;;;16.30;3.33;;;;;;;;;;5053076;28;20757;-68
2022/01/30 01:03:24;;;;;;;10.50;3.45;;;;;;;;;;5053287;28;20570;-70
2022/01/30 01:05:52;;;;;;;9.18;4.32;;;;;;;;;;5053348;28;20185;-69
2022/01/30 01:08:28;;;;;;;16.23;3.63;;;;;;;;;;5052880;28;20224;-69
2022/01/30 01:11:00;;;;;;;17.70;4.20;;;;;;;;;;5053368;28;20653;-69
2022/01/30 01:24:28;;;;;;;11.52;3.22;;;;;;;;;;5053049;28;20277;-69
2022/01/30 01:26:55;;;;;;;18.13;3.78;;;;;;;;;;5053171;28;20255;-69
2022/01/30 01:29:22;;;;;;;7.18;3.08;;;;;;;;;;5053085;28;20223;-69
2022/01/30 01:31:49;;;;;;;21.75;2.78;;;;;;;;;;5053156;28;20192;-70
2022/01/30 01:34:33;;;;;;;22.05;4.03;;;;;;;;;;5053397;28;20599;-69
2022/01/30 01:37:00;;;;;;;14.40;5.07;;;;;;;;;;5053394;28;20201;-68
2022/01/30 01:39:27;;;;;;;12.90;3.63;;;;;;;;;;5053289;28;20274;-68
2022/01/30 01:41:54;;;;;;;8.80;3.03;;;;;;;;;;5052986;28;20287;-69
2022/01/30 01:44:32;;;;;;;5.50;2.97;;;;;;;;;;5053071;28;20563;-69
2022/01/30 01:46:59;;;;;;;10.88;3.10;;;;;;;;;;5053220;28;20649;-69
2022/01/30 01:49:31;;;;;;;13.65;3.35;;;;;;;;;;5053156;28;20229;-69
2022/01/30 01:54:44;;;;;;;11.40;3.40;;;;;;;;;;5052548;28;20323;-69
2022/01/30 01:57:16;;;;;;;14.27;3.70;;;;;;;;;;5052959;28;20192;-69
2022/01/30 01:59:43;;;;;;;13.43;3.05;;;;;;;;;;5052570;28;20272;-69
2022/01/30 02:02:10;;;;;;;6.50;2.70;;;;;;;;;;5056593;28;20304;-69
2022/01/30 02:04:41;;;;;;;9.18;3.70;;;;;;;;;;5056518;28;20229;-70
2022/01/30 02:07:35;;;;;;;11.57;3.55;;;;;;;;;;5056892;28;20201;-69
2022/01/30 02:10:04;;;;;;;8.88;2.50;;;;;;;;;;5056395;28;20560;-69
2022/01/30 02:12:38;;;;;;;10.30;3.22;;;;;;;;;;5056059;28;20233;-69
2022/01/30 02:15:18;;;;;;;13.65;3.40;;;;;;;;;;5056373;28;20186;-70
2022/01/30 02:26:04;;;;;;;10.63;2.53;;;;;;;;;;5056247;28;20261;-69
2022/01/30 02:28:33;;;;;;;8.63;3.75;;;;;;;;;;5055694;28;20264;-69
2022/01/30 02:31:05;;;;;;;5.82;2.63;;;;;;;;;;5056002;28;20205;-70
2022/01/30 02:33:32;;;;;;;15.15;3.35;;;;;;;;;;5056851;28;20186;-70
2022/01/30 02:35:59;;;;;;;15.88;5.30;;;;;;;;;;5055615;28;20201;-68
2022/01/30 02:38:28;;;;;;;11.65;2.88;;;;;;;;;;5055865;28;20237;-68
2022/01/30 02:40:57;;;;;;;13.77;3.45;;;;;;;;;;5055844;28;20248;-69
2022/01/30 02:43:29;;;;;;;17.38;4.18;;;;;;;;;;5056317;28;20203;-68
2022/01/30 02:46:06;;;;;;;5.60;2.33;;;;;;;;;;5055976;28;20614;-68
2022/01/30 02:48:47;;;;;;;8.93;3.80;;;;;;;;;;5055710;28;20216;-69
2022/01/30 02:51:17;;;;;;;10.85;2.90;;;;;;;;;;5055402;28;20221;-69
2022/01/30 02:53:55;;;;;;;8.20;1.80;;;;;;;;;;5055546;28;20196;-69
2022/01/30 02:56:22;;;;;;;13.20;4.45;;;;;;;;;;5055304;28;20233;-69
2022/01/30 02:58:49;;;;;;;14.80;4.68;;;;;;;;;;5055534;28;20212;-68
2022/01/30 03:01:16;;;;;;;9.15;3.00;;;;;;;;;;5055440;28;20200;-70
2022/01/30 03:03:44;;;;;;;12.65;3.45;;;;;;;;;;5055158;28;20196;-69
2022/01/30 03:06:11;;;;;;;12.02;3.15;;;;;;;;;;5055500;28;20225;-68
2022/01/30 03:08:38;;;;;;;9.88;3.55;;;;;;;;;;5055698;28;20220;-69
2022/01/30 03:11:07;;;;;;;6.25;3.05;;;;;;;;;;5054989;28;20732;-68
2022/01/30 03:13:34;;;;;;;12.70;4.15;;;;;;;;;;5054637;28;20201;-68
2022/01/30 03:16:03;;;;;;;12.35;4.20;;;;;;;;;;5055055;28;20204;-69
2022/01/30 03:18:31;;;;;;;11.18;2.92;;;;;;;;;;5055286;28;20206;-69
2022/01/30 03:20:58;;;;;;;26.85;5.40;;;;;;;;;;5054797;28;20223;-68
2022/01/30 03:23:26;;;;;;;9.98;2.58;;;;;;;;;;5055819;28;20193;-69
2022/01/30 03:25:57;;;;;;;7.07;2.25;;;;;;;;;;5054720;28;20231;-69
2022/01/30 03:28:26;;;;;;;5.28;2.22;;;;;;;;;;5055105;28;20711;-69
2022/01/30 03:30:56;;;;;;;6.45;2.95;;;;;;;;;;5054984;28;20246;-69
2022/01/30 03:33:24;;;;;;;6.20;2.60;;;;;;;;;;5056149;28;20568;-69
2022/01/30 03:35:51;;;;;;;10.43;4.15;;;;;;;;;;5054537;28;20201;-68
2022/01/30 03:38:19;;;;;;;10.60;3.17;;;;;;;;;;5054917;28;20292;-69
2022/01/30 03:40:46;;;;;;;8.50;3.25;;;;;;;;;;5054910;28;20200;-69
2022/01/30 03:43:14;;;;;;;5.47;2.95;;;;;;;;;;5054644;28;20284;-68
2022/01/30 03:45:43;;;;;;;13.90;3.45;;;;;;;;;;5054644;28;20193;-69
2022/01/30 03:48:12;;;;;;;14.20;3.38;;;;;;;;;;5054709;28;20309;-69
2022/01/30 03:50:40;;;;;;;11.27;2.85;;;;;;;;;;5054178;28;20205;-68
2022/01/30 03:53:07;;;;;;;8.27;2.78;;;;;;;;;;5054493;28;20247;-69
2022/01/30 03:55:34;;;;;;;13.77;3.67;;;;;;;;;;5054579;28;20225;-69
2022/01/30 03:58:02;;;;;;;14.05;2.92;;;;;;;;;;5054062;28;20655;-68
2022/01/30 04:00:29;;;;;;;13.95;3.22;;;;;;;;;;5054078;28;20212;-69
2022/01/30 04:02:58;;;;;;;9.52;2.65;;;;;;;;;;5054027;28;20203;-69
2022/01/30 04:05:25;;;;;;;16.90;4.70;;;;;;;;;;5053939;28;20284;-69
2022/01/30 04:07:53;;;;;;;11.27;3.05;;;;;;;;;;5054122;28;20531;-69
2022/01/30 04:10:20;;;;;;;19.90;4.15;;;;;;;;;;5054394;28;20210;-69
2022/01/30 04:12:48;;;;;;;18.83;4.85;;;;;;;;;;5054188;28;20303;-69
2022/01/30 04:15:15;;;;;;;9.13;3.22;;;;;;;;;;5054065;28;20197;-68
2022/01/30 04:17:43;;;;;;;8.10;2.63;;;;;;;;;;5054198;28;20196;-69
2022/01/30 04:20:12;;;;;;;10.23;2.53;;;;;;;;;;5054077;28;20566;-68
2022/01/30 04:22:39;;;;;;;11.63;3.72;;;;;;;;;;5054345;28;20284;-69
2022/01/30 04:25:07;;;;;;;7.78;2.40;;;;;;;;;;5053399;28;20286;-69
2022/01/30 04:27:34;;;;;;;7.25;2.47;;;;;;;;;;5053560;28;20284;-69
2022/01/30 04:30:02;;;;;;;16.60;4.50;;;;;;;;;;5053776;28;20227;-69
2022/01/30 04:32:30;;;;;;;10.85;3.28;;;;;;;;;;5053494;28;20196;-69
2022/01/30 04:34:59;;;;;;;16.15;4.00;;;;;;;;;;5053774;28;20204;-69
2022/01/30 04:37:38;;;;;;;14.38;3.90;;;;;;;;;;5053470;28;20287;-69
2022/01/30 04:40:20;;;;;;;10.57;3.35;;;;;;;;;;5053872;28;20568;-68
2022/01/30 04:56:56;;;;;;;16.65;3.67;;;;;;;;;;5053270;28;20253;-68
2022/01/30 04:59:44;;;;;;;18.35;4.05;;;;;;;;;;5054048;28;20189;-69
2022/01/30 05:02:29;;;;;;;9.85;3.10;;;;;;;;;;5053556;28;20188;-69
2022/01/30 05:05:10;;;;;;;6.97;2.85;;;;;;;;;;5053948;28;20189;-69
2022/01/30 05:07:38;;;;;;;9.73;2.75;;;;;;;;;;5053649;28;20184;-68
2022/01/30 05:10:07;;;;;;;15.40;3.08;;;;;;;;;;5052903;28;20294;-67
2022/01/30 05:12:42;;;;;;;9.75;3.50;;;;;;;;;;5053553;28;20614;-66
2022/01/30 05:15:10;;;;;;;11.63;3.83;;;;;;;;;;5053386;28;20248;-67
2022/01/30 05:17:37;;;;;;;10.38;2.83;;;;;;;;;;5052841;28;20255;-68
2022/01/30 05:20:05;;;;;;;12.32;3.60;;;;;;;;;;5053273;28;20284;-69
2022/01/30 05:22:33;;;;;;;10.80;2.90;;;;;;;;;;5053261;28;20282;-69
2022/01/30 05:25:00;;;;;;;17.48;5.32;;;;;;;;;;5053239;28;20285;-68
2022/01/30 05:27:29;;;;;;;11.52;3.88;;;;;;;;;;5052920;28;20202;-69
2022/01/30 05:29:57;;;;;;;13.70;3.47;;;;;;;;;;5052445;28;20210;-69
2022/01/30 05:32:24;;;;;;;12.43;2.95;;;;;;;;;;5052427;28;20197;-70
2022/01/30 05:34:52;;;;;;;21.98;5.93;;;;;;;;;;5052653;28;20205;-69
2022/01/30 05:37:20;;;;;;;7.07;2.40;;;;;;;;;;5056489;28;20283;-70
2022/01/30 05:39:48;;;;;;;15.13;3.72;;;;;;;;;;5056674;28;20207;-69
2022/01/30 05:42:15;;;;;;;15.50;3.78;;;;;;;;;;5056160;28;20228;-69
2022/01/30 05:44:51;;;;;;;14.88;4.10;;;;;;;;;;5056621;28;20215;-69
2022/01/30 05:47:26;;;;;;;16.10;3.80;;;;;;;;;;5056415;28;20204;-69
2022/01/30 05:49:53;;;;;;;18.70;3.55;;;;;;;;;;5055916;28;20234;-69
2022/01/30 05:52:21;;;;;;;28.27;5.25;;;;;;;;;;5056284;28;20210;-70
2022/01/30 05:54:49;;;;;;;18.73;3.90;;;;;;;;;;5056347;28;20307;-69
2022/01/30 05:57:16;;;;;;;12.48;3.65;;;;;;;;;;5056105;28;20257;-70
2022/01/30 05:59:45;;;;;;;14.02;4.47;;;;;;;;;;5055667;28;20655;-69
2022/01/30 06:02:12;;;;;;;12.85;4.15;;;;;;;;;;5056256;28;20202;-69
2022/01/30 06:04:40;;;;;;;21.85;4.30;;;;;;;;;;5055733;28;20675;-69
2022/01/30 06:07:09;;;;;;;20.25;3.92;;;;;;;;;;5056377;28;20216;-69
2022/01/30 06:09:37;;;;;;;13.45;4.10;;;;;;;;;;5056637;28;20227;-69
2022/01/30 06:12:04;;;;;;;15.45;4.55;;;;;;;;;;5056472;28;20302;-69
2022/01/30 06:14:31;;;;;;;13.13;3.47;;;;;;;;;;5056710;28;20220;-69
2022/01/30 06:17:00;;;;;;;17.00;3.25;;;;;;;;;;5056305;28;20200;-69
2022/01/30 06:19:27;;;;;;;17.33;5.20;;;;;;;;;;5055922;28;20241;-70
2022/01/30 06:21:54;;;;;;;16.13;5.18;;;;;;;;;;5056095;28;20670;-69
2022/01/30 06:24:21;;;;;;;12.93;3.45;;;;;;;;;;5055174;28;20193;-68
2022/01/30 06:26:49;;;;;;;19.65;3.75;;;;;;;;;;5055890;28;20330;-69
2022/01/30 06:29:16;;;;;;;17.23;4.85;;;;;;;;;;5055572;28;20214;-70
2022/01/30 06:31:43;;;;;;;15.25;4.28;;;;;;;;;;5056007;28;20304;-69
2022/01/30 06:34:12;;;;;;;18.13;5.10;;;;;;;;;;5055637;28;21156;-69
2022/01/30 06:36:39;;;;;;;21.48;6.43;;;;;;;;;;5055622;28;20233;-69
2022/01/30 06:39:06;;;;;;;22.38;5.13;;;;;;;;;;5055557;28;20288;-68
2022/01/30 06:41:33;;;;;;;13.13;4.95;;;;;;;;;;5055749;28;20227;-68
2022/01/30 06:44:00;;;;;;;20.60;4.57;;;;;;;;;;5054894;28;20204;-70
2022/01/30 06:46:28;;;;;;;16.42;4.15;;;;;;;;;;5055398;28;20287;-69
2022/01/30 06:48:55;;;;;;;9.88;3.50;;;;;;;;;;5055636;28;20231;-68
2022/01/30 06:51:23;;;;;;;16.73;3.80;;;;;;;;;;5055698;28;20259;-69
2022/01/30 06:53:51;;;;;;;23.48;4.30;;;;;;;;;;5055962;28;20206;-69
2022/01/30 06:56:18;;;;;;;27.90;6.35;;;;;;;;;;5055172;28;20274;-69
2022/01/30 06:58:45;;;;;;;28.02;3.95;;;;;;;;;;5055400;28;20233;-69
2022/01/30 07:01:12;;;;;;;23.42;4.63;;;;;;;;;;5056129;28;20194;-69
2022/01/30 07:03:40;;;;;;;31.67;4.65;;;;;;;;;;5055082;28;20262;-68
2022/01/30 07:06:07;;;;;;;26.75;4.53;;;;;;;;;;5054684;28;20200;-69
2022/01/30 07:08:36;;;;;;;23.55;5.00;;;;;;;;;;5055386;28;20240;-69
2022/01/30 07:11:03;;;;;;;11.27;3.90;;;;;;;;;;5055536;28;20309;-69
2022/01/30 07:13:30;;;;;;;11.70;3.45;;;;;;;;;;5055383;28;20235;-69
2022/01/30 07:15:57;;;;;;;28.40;5.10;;;;;;;;;;5054842;28;20198;-69
2022/01/30 07:18:24;;;;;;;16.30;4.63;;;;;;;;;;5054731;28;20232;-68
2022/01/30 07:20:52;;;;;;;20.35;4.93;;;;;;;;;;5055127;28;20201;-70
2022/01/30 07:23:19;;;;;;;16.27;5.53;;;;;;;;;;5054588;28;20196;-68
2022/01/30 07:25:47;;;;;;;25.85;5.32;;;;;;;;;;5054254;28;20198;-68
2022/01/30 07:28:15;;;;;;;18.73;5.72;;;;;;;;;;5054661;28;20656;-68
2022/01/30 07:30:42;;;;;;;22.88;6.00;;;;;;;;;;5054431;28;20220;-70
2022/01/30 07:33:09;;;;;;;23.73;5.05;;;;;;;;;;5054907;28;20237;-69
2022/01/30 07:35:38;;;;;;;16.77;5.10;;;;;;;;;;5055019;28;20643;-69
2022/01/30 07:38:05;;;;;;;24.17;5.10;;;;;;;;;;5054886;28;20199;-68
2022/01/30 07:40:33;;;;;;;16.83;4.03;;;;;;;;;;5054715;28;20196;-68
2022/01/30 07:43:02;;;;;;;11.48;4.00;;;;;;;;;;5053990;28;20199;-70
2022/01/30 07:45:29;;;;;;;18.65;5.85;;;;;;;;;;5054132;28;20194;-69
2022/01/30 07:47:56;;;;;;;25.58;4.57;;;;;;;;;;5054780;28;20636;-69
2022/01/30 07:50:24;;;;;;;32.85;5.70;;;;;;;;;;5054413;28;20263;-69
2022/01/30 07:52:51;;;;;;;26.35;6.10;;;;;;;;;;5054487;28;20288;-69
2022/01/30 07:55:19;;;;;;;20.33;6.03;;;;;;;;;;5053912;28;20228;-69
2022/01/30 07:57:46;;;;;;;28.98;6.45;;;;;;;;;;5054309;28;20196;-69
2022/01/30 08:00:17;;;;;;;18.45;5.80;;;;;;;;;;5053708;28;20199;-69
2022/01/30 08:02:44;;;;;;;22.42;4.18;;;;;;;;;;5054703;28;20605;-69
2022/01/30 08:05:11;;;;;;;27.73;5.32;;;;;;;;;;5054442;28;20247;-71
2022/01/30 08:07:39;;;;;;;20.25;6.80;;;;;;;;;;5054203;28;20278;-69
2022/01/30 08:10:06;;;;;;;29.90;6.35;;;;;;;;;;5054091;28;20573;-69
2022/01/30 08:12:35;;;;;;;19.10;5.22;;;;;;;;;;5054117;28;20280;-70
2022/01/30 08:15:03;;;;;;;25.80;6.10;;;;;;;;;;5053809;28;20288;-69
2022/01/30 08:17:33;;;;;;;19.73;3.95;;;;;;;;;;5054160;28;20238;-69
2022/01/30 08:20:00;;;;;;;25.35;7.38;;;;;;;;;;5054745;28;20204;-68
2022/01/30 08:22:30;;;;;;;18.77;4.25;;;;;;;;;;5053478;28;20201;-70
2022/01/30 08:24:57;;;;;;;29.73;6.32;;;;;;;;;;5053588;28;20200;-70
2022/01/30 08:27:24;;;;;;;16.25;4.00;;;;;;;;;;5053854;28;20292;-69
2022/01/30 08:29:51;;;;;;;26.85;6.25;;;;;;;;;;5054338;28;20219;-68
2022/01/30 08:32:19;;;;;;;33.85;6.32;;;;;;;;;;5053533;28;20283;-69
2022/01/30 08:34:47;;;;;;;17.75;4.20;;;;;;;;;;5053746;28;20198;-69
2022/01/30 08:37:14;;;;;;;27.80;5.90;;;;;;;;;;5053364;28;20220;-69
2022/01/30 08:39:42;;;;;;;23.52;6.35;;;;;;;;;;5054378;28;20208;-69
2022/01/30 08:42:09;;;;;;;37.13;6.68;;;;;;;;;;5053524;28;20197;-68
2022/01/30 08:44:37;;;;;;;16.48;4.78;;;;;;;;;;5053665;28;20235;-68
2022/01/30 08:47:04;;;;;;;27.63;5.80;;;;;;;;;;5053605;28;20232;-69
2022/01/30 08:49:31;;;;;;;34.70;5.82;;;;;;;;;;5053435;28;20259;-69
2022/01/30 08:52:00;;;;;;;19.70;4.18;;;;;;;;;;5053239;28;20196;-69
2022/01/30 08:54:27;;;;;;;32.33;5.95;;;;;;;;;;5052923;28;20251;-69
2022/01/30 08:56:55;;;;;;;25.65;4.38;;;;;;;;;;5054662;28;20217;-70
2022/01/30 08:59:22;;;;;;;15.50;4.65;;;;;;;;;;5053573;28;20232;-67
2022/01/30 09:01:49;;;;;;;24.00;6.40;;;;;;;;;;5053173;28;20197;-67
2022/01/30 09:04:17;;;;;;;35.38;6.68;;;;;;;;;;5053576;28;20288;-68
2022/01/30 09:06:44;;;;;;;14.05;5.07;;;;;;;;;;5054511;28;20192;-68
2022/01/30 09:09:13;;;;;;;18.48;4.78;;;;;;;;;;5054290;28;20232;-70
2022/01/30 09:11:40;;;;;;;29.40;6.10;;;;;;;;;;5057183;28;20371;-67
2022/01/30 09:14:08;;;;;;;16.48;5.15;;;;;;;;;;5057182;28;20243;-67
2022/01/30 09:16:35;;;;;;;34.97;8.07;;;;;;;;;;5057694;28;20199;-67
2022/01/30 09:19:03;;;;;;;23.25;6.10;;;;;;;;;;5056659;28;20217;-67
2022/01/30 09:21:30;;;;;;;22.10;5.53;;;;;;;;;;5056545;28;20749;-67
2022/01/30 09:23:57;;;;;;;27.27;7.13;;;;;;;;;;5056848;28;20196;-67
2022/01/30 09:26:26;;;;;;;24.40;5.00;;;;;;;;;;5056492;28;20200;-68
2022/01/30 09:28:53;;;;;;;26.60;5.30;;;;;;;;;;5056798;28;20228;-67
2022/01/30 09:31:20;;;;;;;18.48;5.47;;;;;;;;;;5056577;28;20216;-67
2022/01/30 09:33:50;;;;;;;19.20;5.03;;;;;;;;;;5056672;28;20291;-68
2022/01/30 09:36:17;;;;;;;20.48;5.22;;;;;;;;;;5057036;28;20202;-67
2022/01/30 09:38:44;;;;;;;23.90;5.95;;;;;;;;;;5057696;28;20232;-67
2022/01/30 09:41:12;;;;;;;20.73;5.05;;;;;;;;;;5056632;28;20717;-67
2022/01/30 09:43:40;;;;;;;25.85;5.85;;;;;;;;;;5057160;28;20220;-68
2022/01/30 09:46:08;;;;;;;31.52;5.65;;;;;;;;;;5056790;28;20220;-68
2022/01/30 09:48:36;;;;;;;15.80;6.22;;;;;;;;;;5056450;28;20285;-68
2022/01/30 09:51:04;;;;;;;22.92;6.50;;;;;;;;;;5056242;28;20213;-68
2022/01/30 09:53:32;;;;;;;35.50;6.00;;;;;;;;;;5055917;28;20208;-68
2022/01/30 09:56:02;;;;;;;21.23;5.28;;;;;;;;;;5056074;28;20312;-67
2022/01/30 09:58:29;;;;;;;25.88;6.90;;;;;;;;;;5056289;28;20243;-67
2022/01/30 10:00:58;;;;;;;21.42;5.15;;;;;;;;;;5056520;28;20243;-67
2022/01/30 10:03:26;;;;;;;21.95;4.82;;;;;;;;;;5056736;28;20203;-67
2022/01/30 10:06:01;;;;;;;17.20;4.28;;;;;;;;;;5056480;28;20233;-67
2022/01/30 10:08:29;;;;;;;36.40;6.90;;;;;;;;;;5056421;28;20200;-68
2022/01/30 10:10:59;;;;;;;23.50;6.57;;;;;;;;;;5055918;28;20210;-67
2022/01/30 10:13:31;;;;;;;31.45;10.18;;;;;;;;;;5055931;28;20192;-67
2022/01/30 10:16:04;;;;;;;33.50;6.25;;;;;;;;;;5056702;28;20183;-67
2022/01/30 10:18:33;;;;;;;27.70;5.05;;;;;;;;;;5056255;28;20651;-66
2022/01/30 10:21:00;;;;;;;44.03;7.22;;;;;;;;;;5056012;28;20209;-67
2022/01/30 10:23:34;;;;;;;17.20;5.45;;;;;;;;;;5055893;28;20193;-66
2022/01/30 10:26:09;;;;;;;22.75;6.40;;;;;;;;;;5056259;28;20356;-66
2022/01/30 10:28:36;;;;;;;24.17;4.90;;;;;;;;;;5055768;28;20268;-66
2022/01/30 10:31:06;;;;;;;13.82;6.55;;;;;;;;;;5055214;28;20683;-67
2022/01/30 10:33:40;;;;;;;25.00;5.68;;;;;;;;;;5055446;28;20201;-67
2022/01/30 10:36:09;;;;;;;28.42;5.65;;;;;;;;;;5055795;28;20276;-66
2022/01/30 10:38:38;;;;;;;30.90;7.93;;;;;;;;;;5055846;28;20197;-66
2022/01/30 10:41:12;;;;;;;24.23;6.63;;;;;;;;;;5055849;28;20201;-67
2022/01/30 10:43:53;;;;;;;38.15;6.90;;;;;;;;;;5056622;28;20186;-67
2022/01/30 10:46:22;;;;;;;24.75;5.80;;;;;;;;;;5055949;28;20196;-67
2022/01/30 10:48:54;;;;;;;26.17;6.07;;;;;;;;;;5055395;28;20289;-66
2022/01/30 10:51:22;;;;;;;25.70;5.75;;;;;;;;;;5055540;28;20222;-66
2022/01/30 10:53:51;;;;;;;27.33;5.00;;;;;;;;;;5055553;28;20242;-66
2022/01/30 10:56:26;;;;;;;20.73;5.70;;;;;;;;;;5055275;28;20245;-66
2022/01/30 10:59:07;;;;;;;25.92;6.88;;;;;;;;;;5055905;28;20189;-66
2022/01/30 11:01:35;;;;;;;22.02;6.35;;;;;;;;;;5055724;28;20561;-66
2022/01/30 11:04:03;;;;;;;24.23;5.40;;;;;;;;;;5056009;28;20607;-66
2022/01/30 11:06:30;;;;;;;26.63;6.20;;;;;;;;;;5055133;28;20229;-66
2022/01/30 11:09:06;;;;;;;22.77;6.18;;;;;;;;;;5055641;28;20196;-66
2022/01/30 11:11:39;;;;;;;36.83;8.25;;;;;;;;;;5055527;28;20213;-65
2022/01/30 11:14:19;;;;;;;24.30;6.10;;;;;;;;;;5056073;28;20211;-66
2022/01/30 11:17:07;;;;;;;29.10;6.55;;;;;;;;;;5055289;28;20284;-67
2022/01/30 11:19:35;;;;;;;19.88;4.63;;;;;;;;;;5054878;28;20192;-66
2022/01/30 11:22:05;;;;;;;20.88;6.38;;;;;;;;;;5055390;28;20231;-65
2022/01/30 11:24:34;;;;;;;25.15;6.25;;;;;;;;;;5055643;28;20197;-66
2022/01/30 11:27:02;;;;;;;30.27;6.38;;;;;;;;;;5055046;28;20288;-66
2022/01/30 11:29:29;;;;;;;23.63;6.00;;;;;;;;;;5054894;28;20199;-66
2022/01/30 11:31:58;;;;;;;16.80;5.32;;;;;;;;;;5054739;28;20225;-67
2022/01/30 11:34:27;;;;;;;22.60;6.28;;;;;;;;;;5054006;28;20201;-66
2022/01/30 11:36:54;;;;;;;21.92;6.93;;;;;;;;;;5054545;28;20239;-66
2022/01/30 11:39:22;;;;;;;22.48;6.70;;;;;;;;;;5054497;28;20230;-66
2022/01/30 11:42:09;;;;;;;35.65;6.32;;;;;;;;;;5054373;28;20285;-66
2022/01/30 11:44:36;;;;;;;27.20;6.68;;;;;;;;;;5054275;28;20233;-67
2022/01/30 11:47:21;;;;;;;31.17;7.72;;;;;;;;;;5054210;28;20234;-66
2022/01/30 11:49:50;;;;;;;26.90;6.85;;;;;;;;;;5054325;28;20624;-67
2022/01/30 11:52:18;;;;;;;19.42;5.30;;;;;;;;;;5054149;28;20249;-66
2022/01/30 11:54:46;;;;;;;24.92;5.35;;;;;;;;;;5054003;28;20279;-65
2022/01/30 11:57:32;;;;;;;10.45;4.13;;;;;;;;;;5054143;28;20285;-66
2022/01/30 12:00:00;;;;;;;27.00;5.15;;;;;;;;;;5053379;28;20288;-65
2022/01/30 12:02:30;;;;;;;38.17;6.00;;;;;;;;;;5053889;28;20205;-65
2022/01/30 12:04:58;;;;;;;26.80;6.05;;;;;;;;;;5053279;28;20285;-67
2022/01/30 12:07:36;;;;;;;29.00;6.20;;;;;;;;;;5053397;28;20255;-66
2022/01/30 12:10:21;;;;;;;42.13;9.23;;;;;;;;;;5053761;28;20240;-67
2022/01/30 12:12:49;;;;;;;22.45;5.53;;;;;;;;;;5053700;28;20224;-66
2022/01/30 12:15:31;;;;;;;18.67;5.93;;;;;;;;;;5053697;28;20255;-66
2022/01/30 12:18:00;;;;;;;19.98;4.25;;;;;;;;;;5053759;28;20277;-65
2022/01/30 12:20:30;;;;;;;18.80;6.03;;;;;;;;;;5053559;28;20280;-66
2022/01/30 12:22:58;;;;;;;15.27;4.78;;;;;;;;;;5053631;28;20195;-65
2022/01/30 12:25:41;;;;;;;28.00;6.10;;;;;;;;;;5053471;28;20201;-66
2022/01/30 12:28:15;;;;;;;30.95;7.25;;;;;;;;;;5053270;28;20190;-66
2022/01/30 12:30:43;;;;;;;17.17;5.20;;;;;;;;;;5052968;28;20210;-65
2022/01/30 12:33:29;;;;;;;35.08;5.72;;;;;;;;;;5054025;28;20202;-65
2022/01/30 12:35:58;;;;;;;46.88;6.20;;;;;;;;;;5054031;28;20198;-66
2022/01/30 12:38:30;;;;;;;20.20;4.95;;;;;;;;;;5053450;28;20230;-66
2022/01/30 12:40:58;;;;;;;34.75;6.25;;;;;;;;;;5053874;28;20278;-66
2022/01/30 12:43:30;;;;;;;26.40;5.25;;;;;;;;;;5053753;28;20229;-66
2022/01/30 12:46:07;;;;;;;22.90;5.78;;;;;;;;;;5053022;28;20607;-65
2022/01/30 12:48:35;;;;;;;12.63;4.15;;;;;;;;;;5053157;28;20228;-65
2022/01/30 12:51:12;;;;;;;21.38;5.43;;;;;;;;;;5052803;28;20261;-65
2022/01/30 12:53:41;;;;;;;15.45;4.10;;;;;;;;;;5052706;28;20185;-66
2022/01/30 12:56:09;;;;;;;25.55;5.65;;;;;;;;;;5053239;28;20300;-65
2022/01/30 12:58:37;;;;;;;26.85;5.80;;;;;;;;;;5052780;28;20227;-65
2022/01/30 13:01:09;;;;;;;17.85;5.07;;;;;;;;;;5052748;28;20207;-65
2022/01/30 13:03:36;;;;;;;39.13;6.70;;;;;;;;;;5053132;28;20290;-65
2022/01/30 13:06:05;;;;;;;22.05;5.22;;;;;;;;;;5053155;28;20247;-66
2022/01/30 13:08:48;;;;;;;33.08;6.85;;;;;;;;;;5053017;28;20202;-66
2022/01/30 13:11:17;;;;;;;18.55;6.10;;;;;;;;;;5052398;28;20214;-66
2022/01/30 13:13:55;;;;;;;29.52;7.38;;;;;;;;;;5052659;28;20245;-66
2022/01/30 13:16:22;;;;;;;28.50;5.90;;;;;;;;;;5053398;28;20204;-65
2022/01/30 13:18:49;;;;;;;27.40;5.57;;;;;;;;;;5054293;28;20198;-66
2022/01/30 13:21:21;;;;;;;31.88;7.43;;;;;;;;;;5053462;28;20254;-65
2022/01/30 13:23:49;;;;;;;27.90;5.88;;;;;;;;;;5052987;28;20272;-65
2022/01/30 13:26:28;;;;;;;31.80;6.75;;;;;;;;;;5052837;28;20243;-65
2022/01/30 13:28:56;;;;;;;28.65;6.00;;;;;;;;;;5052914;28;20263;-66
2022/01/30 13:31:23;;;;;;;30.17;6.32;;;;;;;;;;5052755;28;20253;-65
2022/01/30 13:34:05;;;;;;;18.58;4.53;;;;;;;;;;5053411;28;20290;-65
2022/01/30 13:36:34;;;;;;;16.23;6.25;;;;;;;;;;5054619;28;20266;-65
2022/01/30 13:39:06;;;;;;;30.58;7.07;;;;;;;;;;5054400;28;20533;-66
2022/01/30 13:41:41;;;;;;;19.05;5.03;;;;;;;;;;5053314;28;20191;-65
2022/01/30 13:44:21;;;;;;;28.90;5.63;;;;;;;;;;5053556;28;20200;-66
2022/01/30 13:46:59;;;;;;;25.10;7.10;;;;;;;;;;5053950;28;20193;-67
2022/01/30 13:49:26;;;;;;;24.33;9.27;;;;;;;;;;5054057;28;20275;-66
2022/01/30 13:52:08;;;;;;;22.40;6.30;;;;;;;;;;5053470;28;20308;-66
2022/01/30 13:54:37;;;;;;;18.77;6.07;;;;;;;;;;5053176;28;20321;-66
2022/01/30 13:57:08;;;;;;;21.50;5.25;;;;;;;;;;5055313;28;20296;-66
2022/01/30 13:59:36;;;;;;;30.35;6.55;;;;;;;;;;5057331;28;20241;-65
2022/01/30 14:02:06;;;;;;;31.98;6.63;;;;;;;;;;5057763;28;20202;-65
2022/01/30 14:04:39;;;;;;;26.83;6.40;;;;;;;;;;5057197;28;20540;-66
2022/01/30 14:07:21;;;;;;;29.30;5.93;;;;;;;;;;5057338;28;20235;-66
2022/01/30 14:09:52;;;;;;;29.58;6.45;;;;;;;;;;5056790;28;20194;-66
2022/01/30 14:12:23;;;;;;;11.48;3.55;;;;;;;;;;5055904;28;20241;-66
2022/01/30 14:15:02;;;;;;;32.05;8.60;;;;;;;;;;5056410;28;20649;-66
2022/01/30 14:17:29;;;;;;;21.48;3.75;;;;;;;;;;5056172;28;20197;-65
2022/01/30 14:20:02;;;;;;;23.45;4.70;;;;;;;;;;5056234;28;20656;-65
2022/01/30 14:22:34;;;;;;;22.50;5.50;;;;;;;;;;5056144;28;20217;-67
2022/01/30 14:25:05;;;;;;;27.13;7.60;;;;;;;;;;5056272;28;20532;-66
2022/01/30 14:27:36;;;;;;;21.00;4.53;;;;;;;;;;5056266;28;20204;-66
2022/01/30 14:30:05;;;;;;;16.83;4.97;;;;;;;;;;5055818;28;20542;-65
2022/01/30 14:32:33;;;;;;;24.90;6.47;;;;;;;;;;5055400;28;20226;-65
2022/01/30 14:35:01;;;;;;;26.70;5.78;;;;;;;;;;5056021;28;20216;-66
2022/01/30 14:37:30;;;;;;;30.25;5.93;;;;;;;;;;5055671;28;20287;-69
2022/01/30 14:39:58;;;;;;;17.30;5.05;;;;;;;;;;5055935;28;20267;-65
2022/01/30 14:42:27;;;;;;;16.38;6.63;;;;;;;;;;5055810;28;20216;-65
2022/01/30 14:44:54;;;;;;;21.95;7.30;;;;;;;;;;5055558;28;20228;-65
2022/01/30 14:47:22;;;;;;;18.02;6.13;;;;;;;;;;5055793;28;20199;-65
2022/01/30 14:49:49;;;;;;;26.05;6.28;;;;;;;;;;5055521;28;20196;-65
2022/01/30 14:52:17;;;;;;;20.50;5.00;;;;;;;;;;5054921;28;20213;-68
2022/01/30 14:54:45;;;;;;;34.08;6.05;;;;;;;;;;5055516;28;20265;-65
2022/01/30 14:57:13;;;;;;;20.52;5.82;;;;;;;;;;5055721;28;20204;-65
2022/01/30 14:59:41;;;;;;;22.25;5.68;;;;;;;;;;5055988;28;20284;-66
2022/01/30 15:02:09;;;;;;;24.13;6.30;;;;;;;;;;5055204;28;20198;-66
2022/01/30 15:04:36;;;;;;;33.50;6.95;;;;;;;;;;5055255;28;20251;-67
2022/01/30 15:07:04;;;;;;;16.58;4.95;;;;;;;;;;5055319;28;20212;-67
2022/01/30 15:09:31;;;;;;;18.63;4.78;;;;;;;;;;5053775;28;20257;-67
2022/01/30 15:11:58;;;;;;;26.65;6.05;;;;;;;;;;5054868;28;20226;-66
2022/01/30 15:14:34;;;;;;;21.70;5.50;;;;;;;;;;5054963;28;20297;-66
2022/01/30 15:17:04;;;;;;;27.60;4.67;;;;;;;;;;5055251;28;20289;-66
2022/01/30 15:19:32;;;;;;;25.50;5.55;;;;;;;;;;5055806;28;20440;-67
2022/01/30 15:21:59;;;;;;;32.67;7.28;;;;;;;;;;5054826;28;20237;-66